createdAt,value
2017-08-01T00:00:10.887Z,21.9
2017-08-01T00:01:12.604Z,21.9
2017-08-01T00:02:14.320Z,21.9
2017-08-01T00:03:16.472Z,21.8
2017-08-01T00:04:18.194Z,21.9
2017-08-01T00:05:22.660Z,21.9
2017-08-01T00:06:24.409Z,21.8
2017-08-01T00:07:26.151Z,21.8
2017-08-01T00:08:27.969Z,21.7
2017-08-01T00:09:29.721Z,21.7
2017-08-01T00:10:31.432Z,21.8
2017-08-01T00:11:33.135Z,21.8
2017-08-01T00:12:34.858Z,21.7
2017-08-01T00:13:36.932Z,21.7
2017-08-01T00:14:38.651Z,21.8
2017-08-01T00:15:40.374Z,21.7
2017-08-01T00:16:42.072Z,21.8
2017-08-01T00:17:43.765Z,21.8
2017-08-01T00:18:45.837Z,21.7
2017-08-01T00:19:47.530Z,21.7
2017-08-01T00:20:49.236Z,21.7
2017-08-01T00:21:50.950Z,21.8
2017-08-01T00:22:53.630Z,21.7
2017-08-01T00:23:55.562Z,21.7
2017-08-01T00:24:57.213Z,21.7
2017-08-01T00:25:58.856Z,21.6
2017-08-01T00:27:00.529Z,21.5
2017-08-01T00:28:02.180Z,21.5
2017-08-01T00:29:04.275Z,21.4
2017-08-01T00:30:05.940Z,21.5
2017-08-01T00:31:08.201Z,21.4
2017-08-01T00:32:09.834Z,21.5
2017-08-01T00:33:11.491Z,21.5
2017-08-01T00:34:13.468Z,21.5
2017-08-01T00:35:15.182Z,21.5
2017-08-01T00:36:16.771Z,21.5
2017-08-01T00:37:18.969Z,21.5
2017-08-01T00:38:20.594Z,21.4
2017-08-01T00:39:22.903Z,21.6
2017-08-01T00:40:24.523Z,21.5
2017-08-01T00:41:26.282Z,21.5
2017-08-01T00:42:27.923Z,21.5
2017-08-01T00:43:29.581Z,21.5
2017-08-01T00:44:31.284Z,21.5
2017-08-01T00:45:32.938Z,21.5
2017-08-01T00:46:34.600Z,21.6
2017-08-01T00:47:36.283Z,21.5
2017-08-01T00:48:37.922Z,21.5
2017-08-01T00:49:39.826Z,21.5
2017-08-01T00:50:41.465Z,21.5
2017-08-01T00:51:43.126Z,21.5
2017-08-01T00:52:44.790Z,21.5
2017-08-01T00:53:46.451Z,21.4
2017-08-01T00:54:48.355Z,21.5
2017-08-01T00:55:50.028Z,21.5
2017-08-01T00:56:51.714Z,21.5
2017-08-01T00:57:53.380Z,21.5
2017-08-01T00:58:55.041Z,21.5
2017-08-01T00:59:57.153Z,21.5
2017-08-01T01:00:58.808Z,21.5
2017-08-01T01:02:00.477Z,21.5
2017-08-01T01:03:02.143Z,21.4
2017-08-01T01:04:03.843Z,21.5
2017-08-01T01:05:05.913Z,21.4
2017-08-01T01:06:07.570Z,21.4
2017-08-01T01:07:09.232Z,21.5
2017-08-01T01:08:11.396Z,21.4
2017-08-01T01:09:12.515Z,21.5
2017-08-01T01:10:14.506Z,21.4
2017-08-01T01:11:16.730Z,21.4
2017-08-01T01:12:18.389Z,21.4
2017-08-01T01:13:20.066Z,21.4
2017-08-01T01:14:21.730Z,21.5
2017-08-01T01:15:23.415Z,21.5
2017-08-01T01:16:25.303Z,21.4
2017-08-01T01:17:26.952Z,21.4
2017-08-01T01:18:29.519Z,21.4
2017-08-01T01:19:31.173Z,21.5
2017-08-01T01:20:32.822Z,21.5
2017-08-01T01:21:34.804Z,21.3
2017-08-01T01:22:36.438Z,21.4
2017-08-01T01:23:38.093Z,21.3
2017-08-01T01:24:39.718Z,21.3
2017-08-01T01:25:41.389Z,21.3
2017-08-01T01:26:43.241Z,21.4
2017-08-01T01:27:44.892Z,21.3
2017-08-01T01:28:47.261Z,21.4
2017-08-01T01:29:48.909Z,21.4
2017-08-01T01:30:50.562Z,21.3
2017-08-01T01:31:52.567Z,21.3
2017-08-01T01:32:54.206Z,21.3
2017-08-01T01:33:56.305Z,21.4
2017-08-01T01:34:57.976Z,21.3
2017-08-01T01:35:59.627Z,21.4
2017-08-01T01:37:01.328Z,21.3
2017-08-01T01:38:02.974Z,21.5
2017-08-01T01:39:04.637Z,21.5
2017-08-01T01:40:06.279Z,21.5
2017-08-01T01:41:07.957Z,21.5
2017-08-01T01:42:09.997Z,21.5
2017-08-01T01:43:11.649Z,21.5
2017-08-01T01:44:13.292Z,21.4
2017-08-01T01:45:14.945Z,21.4
2017-08-01T01:46:16.600Z,21.5
2017-08-01T01:47:18.474Z,21.4
2017-08-01T01:48:20.198Z,21.5
2017-08-01T01:49:21.882Z,21.4
2017-08-01T01:50:23.571Z,21.4
2017-08-01T01:51:25.986Z,21.4
2017-08-01T01:52:28.104Z,21.5
2017-08-01T01:53:29.761Z,21.4
2017-08-01T01:54:32.101Z,21.5
2017-08-01T01:55:33.746Z,21.3
2017-08-01T01:56:35.400Z,21.5
2017-08-01T01:57:37.090Z,21.5
2017-08-01T01:58:39.620Z,21.4
2017-08-01T01:59:42.266Z,21.4
2017-08-01T02:00:43.939Z,21.4
2017-08-01T02:01:45.606Z,21.4
2017-08-01T02:02:47.274Z,21.4
2017-08-01T02:03:49.301Z,21.4
2017-08-01T02:04:50.957Z,21.4
2017-08-01T02:05:53.145Z,21.3
2017-08-01T02:06:54.808Z,21.3
2017-08-01T02:07:56.475Z,21.3
2017-08-01T02:08:58.455Z,21.3
2017-08-01T02:10:00.110Z,21.4
2017-08-01T02:11:01.780Z,21.3
2017-08-01T02:12:03.443Z,21.3
2017-08-01T02:13:05.103Z,21.3
2017-08-01T02:14:07.058Z,21.1
2017-08-01T02:15:08.725Z,21.2
2017-08-01T02:16:10.384Z,21.1
2017-08-01T02:17:12.052Z,21.1
2017-08-01T02:18:13.724Z,21.2
2017-08-01T02:19:15.438Z,21.1
2017-08-01T02:20:17.448Z,21.2
2017-08-01T02:21:19.102Z,21.1
2017-08-01T02:22:20.765Z,21.1
2017-08-01T02:23:22.413Z,21.1
2017-08-01T02:24:24.075Z,21.2
2017-08-01T02:25:26.180Z,21.1
2017-08-01T02:26:27.835Z,21.2
2017-08-01T02:27:29.458Z,21.2
2017-08-01T02:28:31.105Z,21.2
2017-08-01T02:29:32.761Z,21.2
2017-08-01T02:30:34.788Z,21.2
2017-08-01T02:31:36.456Z,21.3
2017-08-01T02:32:38.110Z,21.2
2017-08-01T02:33:39.773Z,21.3
2017-08-01T02:34:41.426Z,21.2
2017-08-01T02:35:43.452Z,21.3
2017-08-01T02:36:45.132Z,21.1
2017-08-01T02:37:46.793Z,21.2
2017-08-01T02:38:48.452Z,21.3
2017-08-01T02:39:50.992Z,21.2
2017-08-01T02:40:53.833Z,21.2
2017-08-01T02:41:55.480Z,21.2
2017-08-01T02:42:57.146Z,21.2
2017-08-01T02:43:58.817Z,21.2
2017-08-01T02:45:00.469Z,21.2
2017-08-01T02:46:02.162Z,21.2
2017-08-01T02:47:03.834Z,21.2
2017-08-01T02:48:05.503Z,21.2
2017-08-01T02:49:07.138Z,21.2
2017-08-01T02:50:08.799Z,21.2
2017-08-01T02:51:12.369Z,21.2
2017-08-01T02:52:14.027Z,21.2
2017-08-01T02:53:15.684Z,21.2
2017-08-01T02:54:17.341Z,21.3
2017-08-01T02:55:18.995Z,21.1
2017-08-01T02:56:21.029Z,21.3
2017-08-01T02:57:22.673Z,21.3
2017-08-01T02:58:24.347Z,21.3
2017-08-01T02:59:26.009Z,21.2
2017-08-01T03:00:27.673Z,21.2
2017-08-01T03:01:30.012Z,21.2
2017-08-01T03:02:31.674Z,21.2
2017-08-01T03:03:33.319Z,21.3
2017-08-01T03:04:34.993Z,21.3
2017-08-01T03:05:36.696Z,21.2
2017-08-01T03:06:38.403Z,21.2
2017-08-01T03:07:40.115Z,21.2
2017-08-01T03:08:41.779Z,21.3
2017-08-01T03:09:43.388Z,21.3
2017-08-01T03:10:45.052Z,21.3
2017-08-01T03:11:47.152Z,21.3
2017-08-01T03:12:49.562Z,21.3
2017-08-01T03:13:51.980Z,21.2
2017-08-01T03:14:53.634Z,21.2
2017-08-01T03:15:55.288Z,21.3
2017-08-01T03:16:57.264Z,21.3
2017-08-01T03:17:58.932Z,21.2
2017-08-01T03:19:00.589Z,21.2
2017-08-01T03:20:02.261Z,21.2
2017-08-01T03:21:03.922Z,21.1
2017-08-01T03:22:05.820Z,21.2
2017-08-01T03:23:07.489Z,21.1
2017-08-01T03:24:09.152Z,21.1
2017-08-01T03:25:10.812Z,21.1
2017-08-01T03:26:12.461Z,21.1
2017-08-01T03:27:14.472Z,21.1
2017-08-01T03:28:16.789Z,21.1
2017-08-01T03:29:18.460Z,21.1
2017-08-01T03:30:20.125Z,21.1
2017-08-01T03:31:21.777Z,21.1
2017-08-01T03:32:24.355Z,21.0
2017-08-01T03:33:26.061Z,21.1
2017-08-01T03:34:27.721Z,21.1
2017-08-01T03:35:29.358Z,21.0
2017-08-01T03:36:31.029Z,21.0
2017-08-01T03:37:32.995Z,21.0
2017-08-01T03:38:34.670Z,21.0
2017-08-01T03:39:36.331Z,21.1
2017-08-01T03:40:38.000Z,21.0
2017-08-01T03:41:39.690Z,21.1
2017-08-01T03:42:42.635Z,20.9
2017-08-01T03:43:44.379Z,20.9
2017-08-01T03:44:46.026Z,21.0
2017-08-01T03:45:47.688Z,20.9
2017-08-01T03:46:49.347Z,21.0
2017-08-01T03:47:51.374Z,20.9
2017-08-01T03:48:53.025Z,21.0
2017-08-01T03:49:54.797Z,21.0
2017-08-01T03:50:56.463Z,21.0
2017-08-01T03:51:58.607Z,20.9
2017-08-01T03:53:00.710Z,21.0
2017-08-01T03:54:02.381Z,21.0
2017-08-01T03:55:04.025Z,21.0
2017-08-01T03:56:05.702Z,21.1
2017-08-01T03:57:08.138Z,21.0
2017-08-01T03:58:09.807Z,21.0
2017-08-01T03:59:11.463Z,20.9
2017-08-01T04:00:13.149Z,20.9
2017-08-01T04:01:14.792Z,20.9
2017-08-01T04:02:16.458Z,20.9
2017-08-01T04:03:18.575Z,21.0
2017-08-01T04:04:20.235Z,21.0
2017-08-01T04:05:21.890Z,21.0
2017-08-01T04:06:23.542Z,21.0
2017-08-01T04:07:25.201Z,21.0
2017-08-01T04:08:26.911Z,21.0
2017-08-01T04:09:29.198Z,21.0
2017-08-01T04:10:30.784Z,20.9
2017-08-01T04:11:32.452Z,20.9
2017-08-01T04:12:34.110Z,21.0
2017-08-01T04:13:35.797Z,21.0
2017-08-01T04:14:37.464Z,21.1
2017-08-01T04:15:39.121Z,21.0
2017-08-01T04:16:40.773Z,21.0
2017-08-01T04:17:42.426Z,20.9
2017-08-01T04:18:44.106Z,20.8
2017-08-01T04:19:46.372Z,20.9
2017-08-01T04:20:48.040Z,20.9
2017-08-01T04:21:49.714Z,20.8
2017-08-01T04:22:51.975Z,20.9
2017-08-01T04:23:53.281Z,20.8
2017-08-01T04:24:54.964Z,20.9
2017-08-01T04:25:57.375Z,20.9
2017-08-01T04:26:59.050Z,21.0
2017-08-01T04:28:00.717Z,20.8
2017-08-01T04:29:02.721Z,20.8
2017-08-01T04:30:04.388Z,20.8
2017-08-01T04:31:06.617Z,20.9
2017-08-01T04:32:08.271Z,20.8
2017-08-01T04:33:09.936Z,20.8
2017-08-01T04:34:11.954Z,20.8
2017-08-01T04:35:15.056Z,20.7
2017-08-01T04:36:16.710Z,20.7
2017-08-01T04:37:18.359Z,20.7
2017-08-01T04:38:20.015Z,20.7
2017-08-01T04:39:22.028Z,20.6
2017-08-01T04:40:23.733Z,20.6
2017-08-01T04:41:26.379Z,20.7
2017-08-01T04:42:28.274Z,20.6
2017-08-01T04:43:30.345Z,20.5
2017-08-01T04:44:32.530Z,20.5
2017-08-01T04:45:34.479Z,20.4
2017-08-01T04:46:36.400Z,20.4
2017-08-01T04:47:38.318Z,20.4
2017-08-01T04:48:40.222Z,20.4
2017-08-01T04:49:42.497Z,20.4
2017-08-01T04:50:44.370Z,20.5
2017-08-01T04:51:46.318Z,20.4
2017-08-01T04:52:48.209Z,20.5
2017-08-01T04:53:50.095Z,20.5
2017-08-01T04:54:53.238Z,20.5
2017-08-01T04:55:55.102Z,20.5
2017-08-01T04:56:56.983Z,20.5
2017-08-01T04:57:58.910Z,20.6
2017-08-01T04:59:00.827Z,20.6
2017-08-01T05:00:03.118Z,20.6
2017-08-01T05:01:05.636Z,20.6
2017-08-01T05:02:07.563Z,20.6
2017-08-01T05:03:09.487Z,20.6
2017-08-01T05:04:12.133Z,20.6
2017-08-01T05:05:14.987Z,20.6
2017-08-01T05:06:16.891Z,20.6
2017-08-01T05:07:18.813Z,20.6
2017-08-01T05:08:20.657Z,20.6
2017-08-01T05:09:22.532Z,20.5
2017-08-01T05:10:24.460Z,20.6
2017-08-01T05:11:26.343Z,20.6
2017-08-01T05:12:28.186Z,20.6
2017-08-01T05:13:30.294Z,20.6
2017-08-01T05:14:32.173Z,20.6
2017-08-01T05:15:35.144Z,20.5
2017-08-01T05:16:37.025Z,20.5
2017-08-01T05:17:38.804Z,20.6
2017-08-01T05:18:40.624Z,20.6
2017-08-01T05:19:42.491Z,20.5
2017-08-01T05:20:45.562Z,20.7
2017-08-01T05:21:48.348Z,20.6
2017-08-01T05:22:50.200Z,20.6
2017-08-01T05:23:52.753Z,20.6
2017-08-01T05:24:54.624Z,20.5
2017-08-01T05:25:56.549Z,20.6
2017-08-01T05:26:58.711Z,20.6
2017-08-01T05:28:00.594Z,20.6
2017-08-01T05:29:02.445Z,20.6
2017-08-01T05:30:04.328Z,20.7
2017-08-01T05:31:06.232Z,20.7
2017-08-01T05:32:08.529Z,20.7
2017-08-01T05:33:10.412Z,20.7
2017-08-01T05:34:12.876Z,20.7
2017-08-01T05:35:14.745Z,20.7
2017-08-01T05:36:17.518Z,20.6
2017-08-01T05:37:19.725Z,20.7
2017-08-01T05:38:21.652Z,20.7
2017-08-01T05:39:23.563Z,20.8
2017-08-01T05:40:26.222Z,20.7
2017-08-01T05:41:28.076Z,20.8
2017-08-01T05:42:29.962Z,20.7
2017-08-01T05:43:31.843Z,20.7
2017-08-01T05:44:33.706Z,20.7
2017-08-01T05:45:35.521Z,20.8
2017-08-01T05:46:37.355Z,20.7
2017-08-01T05:47:39.641Z,20.7
2017-08-01T05:48:42.235Z,20.7
2017-08-01T05:49:44.029Z,20.7
2017-08-01T05:50:45.862Z,20.7
2017-08-01T05:51:47.686Z,20.7
2017-08-01T05:52:50.238Z,20.8
2017-08-01T05:53:52.082Z,20.8
2017-08-01T05:54:53.963Z,20.9
2017-08-01T05:55:55.798Z,20.9
2017-08-01T05:56:58.287Z,20.8
2017-08-01T05:58:00.780Z,20.8
2017-08-01T05:59:02.643Z,21.0
2017-08-01T06:00:04.474Z,20.9
2017-08-01T06:01:06.331Z,20.9
2017-08-01T06:02:08.197Z,21.0
2017-08-01T06:03:10.534Z,21.0
2017-08-01T06:04:12.416Z,20.9
2017-08-01T06:05:14.263Z,21.0
2017-08-01T06:06:16.096Z,20.9
2017-08-01T06:07:17.953Z,20.9
2017-08-01T06:08:20.264Z,20.9
2017-08-01T06:09:22.109Z,21.0
2017-08-01T06:10:23.981Z,21.0
2017-08-01T06:11:25.834Z,20.9
2017-08-01T06:12:27.684Z,21.0
2017-08-01T06:13:29.586Z,21.0
2017-08-01T06:14:31.781Z,21.0
2017-08-01T06:15:34.422Z,21.0
2017-08-01T06:16:36.319Z,20.9
2017-08-01T06:17:38.189Z,21.0
2017-08-01T06:18:40.097Z,21.0
2017-08-01T06:19:43.008Z,21.0
2017-08-01T06:20:44.877Z,21.0
2017-08-01T06:21:46.720Z,21.0
2017-08-01T06:22:48.616Z,21.1
2017-08-01T06:23:50.515Z,20.9
2017-08-01T06:24:52.758Z,21.0
2017-08-01T06:25:55.097Z,21.0
2017-08-01T06:26:57.493Z,21.0
2017-08-01T06:27:59.399Z,20.9
2017-08-01T06:29:01.272Z,21.0
2017-08-01T06:30:03.564Z,20.9
2017-08-01T06:31:05.368Z,20.9
2017-08-01T06:32:07.200Z,21.0
2017-08-01T06:33:09.079Z,20.9
2017-08-01T06:34:10.953Z,21.0
2017-08-01T06:35:13.268Z,21.0
2017-08-01T06:36:15.120Z,21.0
2017-08-01T06:37:16.946Z,21.1
2017-08-01T06:38:18.816Z,21.0
2017-08-01T06:39:21.573Z,21.0
2017-08-01T06:40:23.810Z,21.0
2017-08-01T06:41:25.737Z,21.0
2017-08-01T06:42:27.666Z,21.0
2017-08-01T06:43:29.560Z,21.1
2017-08-01T06:44:31.464Z,21.0
2017-08-01T06:45:33.730Z,21.1
2017-08-01T06:46:35.611Z,21.1
2017-08-01T06:47:37.537Z,21.1
2017-08-01T06:48:39.430Z,21.1
2017-08-01T06:49:41.320Z,21.0
2017-08-01T06:50:43.665Z,21.0
2017-08-01T06:51:45.570Z,20.9
2017-08-01T06:52:47.459Z,21.0
2017-08-01T06:53:49.343Z,20.9
2017-08-01T06:54:51.276Z,21.0
2017-08-01T06:55:53.187Z,20.9
2017-08-01T06:56:55.084Z,21.0
2017-08-01T06:57:57.013Z,21.1
2017-08-01T06:58:58.916Z,21.0
2017-08-01T07:00:01.527Z,21.0
2017-08-01T07:01:03.814Z,21.0
2017-08-01T07:02:05.901Z,21.0
2017-08-01T07:03:07.806Z,21.1
2017-08-01T07:04:10.413Z,21.0
2017-08-01T07:05:12.420Z,21.1
2017-08-01T07:06:14.666Z,21.2
2017-08-01T07:07:16.671Z,21.2
2017-08-01T07:08:18.561Z,21.2
2017-08-01T07:09:20.962Z,21.2
2017-08-01T07:10:23.808Z,21.1
2017-08-01T07:11:26.135Z,21.1
2017-08-01T07:12:27.995Z,21.2
2017-08-01T07:13:29.890Z,21.3
2017-08-01T07:14:31.836Z,21.3
2017-08-01T07:15:33.771Z,21.3
2017-08-01T07:16:36.113Z,21.2
2017-08-01T07:17:38.059Z,21.3
2017-08-01T07:18:39.970Z,21.3
2017-08-01T07:19:41.912Z,21.3
2017-08-01T07:20:43.758Z,21.3
2017-08-01T07:21:46.132Z,21.2
2017-08-01T07:22:47.966Z,21.3
2017-08-01T07:23:49.894Z,21.2
2017-08-01T07:24:52.634Z,21.4
2017-08-01T07:25:55.326Z,21.3
2017-08-01T07:26:57.752Z,21.4
2017-08-01T07:28:00.334Z,21.4
2017-08-01T07:29:02.226Z,21.6
2017-08-01T07:30:04.121Z,21.4
2017-08-01T07:31:06.057Z,21.5
2017-08-01T07:32:08.013Z,21.5
2017-08-01T07:33:10.335Z,21.5
2017-08-01T07:34:12.236Z,21.5
2017-08-01T07:35:14.925Z,21.5
2017-08-01T07:36:16.840Z,21.6
2017-08-01T07:37:19.818Z,21.5
2017-08-01T07:38:21.716Z,21.5
2017-08-01T07:39:23.604Z,21.6
2017-08-01T07:40:25.553Z,21.6
2017-08-01T07:41:27.492Z,21.7
2017-08-01T07:42:29.651Z,21.6
2017-08-01T07:43:31.571Z,21.6
2017-08-01T07:44:33.479Z,21.7
2017-08-01T07:45:35.327Z,21.7
2017-08-01T07:46:37.214Z,21.8
2017-08-01T07:47:39.371Z,21.8
2017-08-01T07:48:41.319Z,21.7
2017-08-01T07:49:43.201Z,21.8
2017-08-01T07:50:45.078Z,21.8
2017-08-01T07:51:46.895Z,21.9
2017-08-01T07:52:49.649Z,21.9
2017-08-01T07:53:51.548Z,21.8
2017-08-01T07:54:54.166Z,22.0
2017-08-01T07:55:56.093Z,21.9
2017-08-01T07:56:57.968Z,21.9
2017-08-01T07:58:00.284Z,22.0
2017-08-01T07:59:02.279Z,21.9
2017-08-01T08:00:04.209Z,22.1
2017-08-01T08:01:06.866Z,22.0
2017-08-01T08:02:08.727Z,22.1
2017-08-01T08:03:11.083Z,21.9
2017-08-01T08:04:13.040Z,22.0
2017-08-01T08:05:14.968Z,21.9
2017-08-01T08:06:16.816Z,22.1
2017-08-01T08:07:19.316Z,22.0
2017-08-01T08:08:21.232Z,22.1
2017-08-01T08:09:23.037Z,22.0
2017-08-01T08:10:24.901Z,22.2
2017-08-01T08:11:26.892Z,22.1
2017-08-01T08:12:28.772Z,22.1
2017-08-01T08:13:30.970Z,22.2
2017-08-01T08:15:20.786Z,22.1
2017-08-01T08:16:22.382Z,22.2
2017-08-01T08:17:23.978Z,22.3
2017-08-01T08:18:25.610Z,22.4
2017-08-01T08:19:27.632Z,22.5
2017-08-01T08:20:29.307Z,22.6
2017-08-01T08:50:41.053Z,23.7
2017-08-01T08:51:51.686Z,23.68
2017-08-01T08:52:51.678Z,23.68
2017-08-01T08:53:51.771Z,23.79
2017-08-01T08:54:52.385Z,23.73
2017-08-01T08:55:53.261Z,23.80
2017-08-01T08:56:52.049Z,23.80
2017-08-01T08:57:51.655Z,23.85
2017-08-01T08:58:51.653Z,23.90
2017-08-01T08:59:51.648Z,23.80
2017-08-01T09:02:26.567Z,23.76
2017-08-01T09:03:25.282Z,23.70
2017-08-01T09:04:25.558Z,23.66
2017-08-01T09:05:26.026Z,23.54
2017-08-01T09:06:26.041Z,23.42
2017-08-01T09:07:25.970Z,23.36
2017-08-01T09:08:25.281Z,23.32
2017-08-01T09:09:25.280Z,23.23
2017-08-01T09:10:25.286Z,23.17
2017-08-01T09:11:25.400Z,23.22
2017-08-01T09:12:26.306Z,23.15
2017-08-01T09:13:26.855Z,23.12
2017-08-01T09:14:25.636Z,23.01
2017-08-01T09:15:25.470Z,23.07
2017-08-01T09:16:25.819Z,23.04
2017-08-01T09:17:25.941Z,23.04
2017-08-01T09:18:25.195Z,23.04
2017-08-01T09:19:25.498Z,23.02
2017-08-01T09:20:25.160Z,22.98
2017-08-01T09:21:25.155Z,22.95
2017-08-01T09:22:25.151Z,22.97
2017-08-01T09:23:25.141Z,22.90
2017-08-01T09:24:25.141Z,22.95
2017-08-01T09:25:25.578Z,23.01
2017-08-01T09:26:25.128Z,22.94
2017-08-01T09:27:25.135Z,22.94
2017-08-01T09:28:25.125Z,22.92
2017-08-01T09:29:25.117Z,23.04
2017-08-01T09:30:25.113Z,22.97
2017-08-01T09:31:25.550Z,22.98
2017-08-01T09:32:25.105Z,23.05
2017-08-01T09:33:25.105Z,23.02
2017-08-01T09:34:25.093Z,23.04
2017-08-01T09:35:25.091Z,23.16
2017-08-01T09:36:25.083Z,23.13
2017-08-01T09:37:25.411Z,23.07
2017-08-01T09:38:25.073Z,23.12
2017-08-01T09:39:25.072Z,23.07
2017-08-01T09:40:25.063Z,23.12
2017-08-01T09:41:25.071Z,23.16
2017-08-01T09:42:25.057Z,23.13
2017-08-01T09:43:25.737Z,23.05
2017-08-01T09:44:25.053Z,23.07
2017-08-01T09:45:25.048Z,23.07
2017-08-01T09:46:25.041Z,23.19
2017-08-01T09:47:25.040Z,23.10
2017-08-01T09:48:25.036Z,22.97
2017-08-01T09:49:25.061Z,23.07
2017-08-01T09:50:25.025Z,23.07
2017-08-01T09:51:25.024Z,23.04
2017-08-01T09:52:25.012Z,22.97
2017-08-01T09:53:25.469Z,22.94
2017-08-01T09:54:25.005Z,22.90
2017-08-01T09:55:25.007Z,22.86
2017-08-01T09:56:24.999Z,22.91
2017-08-01T09:57:24.993Z,22.90
2017-08-01T09:58:24.990Z,22.92
2017-08-01T09:59:25.015Z,22.88
2017-08-01T10:00:24.984Z,22.94
2017-08-01T10:01:24.977Z,22.94
2017-08-01T10:02:24.970Z,22.91
2017-08-01T10:03:24.965Z,23.01
2017-08-01T10:04:25.011Z,22.90
2017-08-01T10:05:24.967Z,22.88
2017-08-01T10:06:24.953Z,22.90
2017-08-01T10:07:24.946Z,22.92
2017-08-01T10:08:25.064Z,22.91
2017-08-01T10:09:25.476Z,22.88
2017-08-01T10:10:24.934Z,22.91
2017-08-01T10:11:24.927Z,22.88
2017-08-01T10:12:24.924Z,22.80
2017-08-01T10:13:24.994Z,22.86
2017-08-01T10:14:24.914Z,22.83
2017-08-01T10:15:27.858Z,22.83
2017-08-01T10:16:24.909Z,22.82
2017-08-01T10:17:24.902Z,22.82
2017-08-01T10:18:25.020Z,22.85
2017-08-01T10:19:25.950Z,22.83
2017-08-01T10:20:24.891Z,22.90
2017-08-01T10:21:25.228Z,22.80
2017-08-01T10:22:24.881Z,22.82
2017-08-01T10:23:24.874Z,22.82
2017-08-01T10:24:24.871Z,22.88
2017-08-01T10:25:24.873Z,22.86
2017-08-01T10:26:24.863Z,22.83
2017-08-01T10:27:25.259Z,22.86
2017-08-01T10:28:24.868Z,22.82
2017-08-01T10:29:24.862Z,22.82
2017-08-01T10:30:24.842Z,22.82
2017-08-01T10:31:24.841Z,22.90
2017-08-01T10:32:24.835Z,22.83
2017-08-01T10:33:24.884Z,22.85
2017-08-01T10:34:24.941Z,22.85
2017-08-01T10:35:24.824Z,22.91
2017-08-01T10:36:24.816Z,22.91
2017-08-01T10:37:24.812Z,22.94
2017-08-01T10:38:25.253Z,22.94
2017-08-01T10:39:24.851Z,22.90
2017-08-01T10:40:24.795Z,22.86
2017-08-01T10:41:24.794Z,22.86
2017-08-01T10:42:24.795Z,22.90
2017-08-01T10:43:24.781Z,22.90
2017-08-01T10:44:25.121Z,22.85
2017-08-01T10:45:24.775Z,22.82
2017-08-01T10:46:24.769Z,22.77
2017-08-01T10:47:24.768Z,22.79
2017-08-01T10:48:24.760Z,22.70
2017-08-01T10:49:24.756Z,22.73
2017-08-01T10:50:24.970Z,22.77
2017-08-01T10:51:24.751Z,22.80
2017-08-01T10:52:24.741Z,22.72
2017-08-01T10:53:24.734Z,22.68
2017-08-01T10:54:24.733Z,22.68
2017-08-01T10:55:24.728Z,22.67
2017-08-01T10:56:25.168Z,22.67
2017-08-01T10:57:24.717Z,22.67
2017-08-01T10:58:24.711Z,22.65
2017-08-01T10:59:24.718Z,22.64
2017-08-01T11:00:24.706Z,22.67
2017-08-01T11:01:24.703Z,22.65
2017-08-01T11:02:25.055Z,22.64
2017-08-01T11:03:24.688Z,22.60
2017-08-01T11:04:24.686Z,22.60
2017-08-01T11:05:24.681Z,22.54
2017-08-01T11:06:24.672Z,22.52
2017-08-01T11:07:24.670Z,22.52
2017-08-01T11:08:24.979Z,22.54
2017-08-01T11:09:24.659Z,22.60
2017-08-01T11:10:24.663Z,22.52
2017-08-01T11:11:24.652Z,22.61
2017-08-01T11:12:24.649Z,22.67
2017-08-01T11:13:24.643Z,22.62
2017-08-01T11:14:25.086Z,22.68
2017-08-01T11:15:24.646Z,22.62
2017-08-01T11:16:24.630Z,22.61
2017-08-01T11:17:24.635Z,22.80
2017-08-01T11:18:24.622Z,22.79
2017-08-01T11:19:24.615Z,22.83
2017-08-01T11:20:24.644Z,22.82
2017-08-01T11:21:24.633Z,22.95
2017-08-01T11:22:24.602Z,23.02
2017-08-01T11:23:24.601Z,23.02
2017-08-01T11:24:24.594Z,23.10
2017-08-01T11:25:24.749Z,23.28
2017-08-01T11:26:24.611Z,23.23
2017-08-01T11:27:24.581Z,23.31
2017-08-01T11:28:24.581Z,23.50
2017-08-01T11:29:24.575Z,23.55
2017-08-01T11:30:24.569Z,23.65
2017-08-01T11:31:24.598Z,23.75
2017-08-01T11:32:24.561Z,23.80
2017-08-01T11:33:24.559Z,23.80
2017-08-01T11:34:24.555Z,23.76
2017-08-01T11:35:24.555Z,23.83
2017-08-01T11:36:24.950Z,23.93
2017-08-01T11:37:24.549Z,24.06
2017-08-01T11:38:24.545Z,24.16
2017-08-01T11:39:24.546Z,24.27
2017-08-01T11:40:24.537Z,24.50
2017-08-01T11:41:24.533Z,24.47
2017-08-01T11:42:24.571Z,24.64
2017-08-01T11:43:24.534Z,24.64
2017-08-01T11:44:24.629Z,24.84
2017-08-01T11:45:24.530Z,24.83
2017-08-01T11:46:24.746Z,24.77
2017-08-01T11:47:24.528Z,24.71
2017-08-01T11:48:24.526Z,24.60
2017-08-01T11:49:24.608Z,24.50
2017-08-01T11:50:24.519Z,24.47
2017-08-01T11:51:24.520Z,24.52
2017-08-01T11:52:24.744Z,24.30
2017-08-01T11:53:24.514Z,24.30
2017-08-01T11:54:24.529Z,24.34
2017-08-01T11:55:24.512Z,24.21
2017-08-01T11:56:24.520Z,24.15
2017-08-01T11:57:24.506Z,24.16
2017-08-01T11:58:24.866Z,24.12
2017-08-01T11:59:24.503Z,24.13
2017-08-01T12:00:24.496Z,24.18
2017-08-01T12:01:24.501Z,24.18
2017-08-01T12:02:24.492Z,24.24
2017-08-01T12:03:24.488Z,24.22
2017-08-01T12:04:24.705Z,24.10
2017-08-01T12:05:24.481Z,24.09
2017-08-01T12:06:24.480Z,24.12
2017-08-01T12:07:24.477Z,24.08
2017-08-01T12:08:24.473Z,24.20
2017-08-01T12:09:24.469Z,24.20
2017-08-01T12:10:24.861Z,24.21
2017-08-01T12:11:24.464Z,24.20
2017-08-01T12:12:24.460Z,24.21
2017-08-01T12:13:24.458Z,24.15
2017-08-01T12:14:24.454Z,24.12
2017-08-01T12:15:24.452Z,24.09
2017-08-01T12:16:24.715Z,24.16
2017-08-01T12:17:24.449Z,24.12
2017-08-01T12:18:24.515Z,24.09
2017-08-01T12:19:25.024Z,24.08
2017-08-01T12:20:24.433Z,24.02
2017-08-01T12:21:24.434Z,23.97
2017-08-01T12:22:24.872Z,23.87
2017-08-01T12:23:24.422Z,23.80
2017-08-01T12:24:24.418Z,23.94
2017-08-01T12:25:25.494Z,23.84
2017-08-01T12:26:24.413Z,23.80
2017-08-01T12:27:24.409Z,23.79
2017-08-01T12:28:24.709Z,23.85
2017-08-01T12:29:24.401Z,23.85
2017-08-01T12:30:24.401Z,23.80
2017-08-01T12:31:24.397Z,23.85
2017-08-01T12:32:24.388Z,23.87
2017-08-01T12:33:24.387Z,23.87
2017-08-01T12:34:24.689Z,23.87
2017-08-01T12:35:24.382Z,23.87
2017-08-01T12:36:24.374Z,23.85
2017-08-01T12:37:24.374Z,23.95
2017-08-01T12:38:24.367Z,23.87
2017-08-01T12:39:24.371Z,23.98
2017-08-01T12:40:24.805Z,23.91
2017-08-01T12:41:24.355Z,23.91
2017-08-01T12:42:24.354Z,23.78
2017-08-01T12:43:24.349Z,23.84
2017-08-01T12:44:24.349Z,23.84
2017-08-01T12:45:24.339Z,23.70
2017-08-01T12:46:24.376Z,23.70
2017-08-01T12:47:24.335Z,23.70
2017-08-01T12:48:24.334Z,23.69
2017-08-01T12:49:24.328Z,23.68
2017-08-01T12:50:24.640Z,23.68
2017-08-01T12:51:24.325Z,23.65
2017-08-01T12:52:24.313Z,23.66
2017-08-01T12:53:24.311Z,23.66
2017-08-01T12:54:24.311Z,23.57
2017-08-01T12:55:24.304Z,23.54
2017-08-01T12:56:24.661Z,23.53
2017-08-01T12:57:24.296Z,23.55
2017-08-01T12:58:24.298Z,23.50
2017-08-01T12:59:24.287Z,23.57
2017-08-01T13:00:24.285Z,23.57
2017-08-01T13:01:24.279Z,23.63
2017-08-01T13:02:24.308Z,23.65
2017-08-01T13:03:24.273Z,23.68
2017-08-01T13:04:24.266Z,23.69
2017-08-01T13:05:24.288Z,23.68
2017-08-01T13:06:24.259Z,23.63
2017-08-01T13:07:24.259Z,23.69
2017-08-01T13:08:24.255Z,23.72
2017-08-01T13:09:24.245Z,23.78
2017-08-01T13:10:24.566Z,23.85
2017-08-01T13:11:24.251Z,23.85
2017-08-01T13:12:24.236Z,23.87
2017-08-01T13:13:24.238Z,23.78
2017-08-01T13:14:24.225Z,23.76
2017-08-01T13:15:24.229Z,23.84
2017-08-01T13:16:24.635Z,23.84
2017-08-01T13:17:24.218Z,23.83
2017-08-01T13:18:24.212Z,23.84
2017-08-01T13:19:24.208Z,23.85
2017-08-01T13:20:24.206Z,23.87
2017-08-01T13:21:24.197Z,23.73
2017-08-01T13:22:24.537Z,23.76
2017-08-01T13:23:24.196Z,23.75
2017-08-01T13:24:24.187Z,23.78
2017-08-01T13:25:24.185Z,23.70
2017-08-01T13:26:24.180Z,23.70
2017-08-01T13:27:24.185Z,23.83
2017-08-01T13:28:24.215Z,23.83
2017-08-01T13:29:24.188Z,23.88
2017-08-01T13:30:24.162Z,23.88
2017-08-01T13:31:24.161Z,23.84
2017-08-01T13:32:24.159Z,23.84
2017-08-01T13:33:24.612Z,23.87
2017-08-01T13:34:24.212Z,23.79
2017-08-01T13:35:24.145Z,23.69
2017-08-01T13:36:24.143Z,23.68
2017-08-01T13:37:24.142Z,23.72
2017-08-01T13:38:24.145Z,23.70
2017-08-01T13:39:24.369Z,23.66
2017-08-01T13:40:24.127Z,23.61
2017-08-01T13:41:24.120Z,23.75
2017-08-01T13:42:24.118Z,23.66
2017-08-01T13:43:24.125Z,23.65
2017-08-01T13:44:24.110Z,23.65
2017-08-01T13:45:24.493Z,23.68
2017-08-01T13:46:24.099Z,23.55
2017-08-01T13:47:24.448Z,23.63
2017-08-01T13:48:24.092Z,23.57
2017-08-01T13:49:24.086Z,23.61
2017-08-01T13:50:24.087Z,23.55
2017-08-01T13:51:24.556Z,23.55
2017-08-01T13:52:24.083Z,23.50
2017-08-01T13:53:24.075Z,23.53
2017-08-01T13:54:24.079Z,23.50
2017-08-01T13:55:24.064Z,23.54